首页
METAR-TAF:

METAR-TAF

机场 :

拉巴特-塞拉国际机场

拉巴特, 摩洛哥

纬度: 34-03N, 经度: 006-46W, 海拔: 84米

当前天气观测

该预报发布于24分钟前的02:00 UTC
静风
温度 15°C
湿度 88%
气压 1015 hPa
能見度: 8000

METAR: GMME 230200Z 00000KT 8000 NSC 15/13 Q1015 NOSIG

时间: 03:24 (02:24 UTC)

预报

该预报发布于3小时和24分钟前的23:00 UTC
预报有效从23日的 00点(UTC)到 24日的 06点(UTC)
风速6节,风向北转西北
能見度: 8000
多云层高于1300英尺
多云层高于2000英尺
短暂存在
从 23日的 00点(UTC)到 23日的 06点(UTC)
风速6节,风向东北
成为
从 23日的 20点(UTC)到 23日的 22点(UTC)
风速4节,风向西
能見度: 5000
散云层高于1000英尺
多云层高于1500英尺

TAF: GMME 222300Z 2300/2406 33006KT 8000 BKN013 BKN020 TEMPO 2300/2306 04006KT BECMG 2320/2322 27004KT 5000 SCT010 BKN015

超过4000个机场的气象观测和天气预报(METAR&TAF报告)。

可查询的气象台以黄色和红色小点在地图上表示。

将鼠标移到小点上方,可查看气象台名称。

然后点击查看天气观测和预报。

如需切换地图:点击带黑十字的绿色按钮放大地图;点击带横线的绿色按钮缩小地图;或者点击绿色箭头查看邻近地区的地图。


METAR-TAF: